createdAt,value
2022-12-01T00:01:38.037Z,101190.66
2022-12-01T00:05:10.152Z,101183.88
2022-12-01T00:08:40.860Z,101198.66
2022-12-01T00:12:01.914Z,101191.59
2022-12-01T00:15:16.844Z,101198.06
2022-12-01T00:18:36.218Z,101205.75
2022-12-01T00:22:11.451Z,101207.50
2022-12-01T00:25:41.805Z,101213.06
2022-12-01T00:29:08.959Z,101211.06
2022-12-01T00:32:26.716Z,101215.88
2022-12-01T00:35:31.027Z,101207.59
2022-12-01T00:38:52.351Z,101215.97
2022-12-01T00:42:13.371Z,101206.72
2022-12-01T00:45:45.423Z,101215.22
2022-12-01T00:49:16.501Z,101218.50
2022-12-01T00:52:33.668Z,101212.66
2022-12-01T00:55:59.586Z,101217.69
2022-12-01T00:59:19.206Z,101217.88
2022-12-01T01:02:23.146Z,101222.44
2022-12-01T01:05:28.350Z,101217.88
2022-12-01T01:08:51.242Z,101221.78
2022-12-01T01:12:25.673Z,101216.56
2022-12-01T01:15:43.046Z,101219.16
2022-12-01T01:19:14.074Z,101208.44
2022-12-01T01:22:32.911Z,101213.97
2022-12-01T01:25:52.213Z,101211.38
2022-12-01T01:29:34.750Z,101212.66
2022-12-01T01:32:54.012Z,101210.37
2022-12-01T01:36:12.165Z,101211.34
2022-12-01T01:39:33.600Z,101204.50
2022-12-01T01:43:38.490Z,101199.31
2022-12-01T01:47:29.402Z,101205.19
2022-12-01T01:51:02.087Z,101200.63
2022-12-01T01:54:41.410Z,101207.63
2022-12-01T01:58:00.736Z,101209.41
2022-12-01T02:01:34.676Z,101202.22
2022-12-01T02:04:56.793Z,101194.72
2022-12-01T02:08:26.012Z,101192.28
2022-12-01T02:11:57.469Z,101195.72
2022-12-01T02:15:34.448Z,101191.47
2022-12-01T02:19:22.829Z,101184.00
2022-12-01T02:22:53.359Z,101187.59
2022-12-01T02:26:42.011Z,101188.09
2022-12-01T02:30:21.788Z,101192.97
2022-12-01T02:34:45.952Z,101198.00
2022-12-01T02:38:39.054Z,101195.09
2022-12-01T02:42:54.392Z,101191.66
2022-12-01T02:46:38.926Z,101189.25
2022-12-01T02:50:03.696Z,101195.25
2022-12-01T02:53:44.526Z,101187.94
2022-12-01T02:56:47.462Z,101194.41
2022-12-01T03:00:21.892Z,101196.06
2022-12-01T03:04:17.414Z,101198.63
2022-12-01T03:08:34.483Z,101201.53
2022-12-01T03:12:14.489Z,101197.56
2022-12-01T03:15:53.397Z,101197.53
2022-12-01T03:19:38.506Z,101193.00
2022-12-01T03:23:22.583Z,101190.38
2022-12-01T03:26:47.498Z,101189.59
2022-12-01T03:30:21.934Z,101180.53
2022-12-01T03:34:04.103Z,101182.50
2022-12-01T03:41:26.425Z,101175.06
2022-12-01T03:45:16.244Z,101162.87
2022-12-01T03:49:11.209Z,101160.59
2022-12-01T03:52:36.383Z,101164.50
2022-12-01T03:56:17.521Z,101170.03
2022-12-01T03:59:49.397Z,101177.84
2022-12-01T04:03:18.895Z,101178.78
2022-12-01T04:06:59.161Z,101181.25
2022-12-01T04:10:18.427Z,101170.66
2022-12-01T04:13:53.348Z,101162.84
2022-12-01T04:17:30.310Z,101158.59
2022-12-01T04:20:58.417Z,101159.06
2022-12-01T04:24:20.130Z,101159.19
2022-12-01T04:27:39.026Z,101160.34
2022-12-01T04:31:06.912Z,101162.63
2022-12-01T04:34:25.347Z,101173.84
2022-12-01T04:37:42.818Z,101179.37
2022-12-01T04:41:06.862Z,101193.66
2022-12-01T04:44:36.070Z,101198.25
2022-12-01T04:48:05.446Z,101200.47
2022-12-01T04:51:25.907Z,101195.91
2022-12-01T04:55:01.280Z,101191.00
2022-12-01T04:58:19.111Z,101201.25
2022-12-01T05:01:48.453Z,101206.22
2022-12-01T05:05:23.427Z,101204.19
2022-12-01T05:08:46.678Z,101201.53
2022-12-01T05:12:03.793Z,101206.84
2022-12-01T05:15:32.079Z,101206.13
2022-12-01T05:19:16.636Z,101193.31
2022-12-01T05:23:03.813Z,101197.97
2022-12-01T05:26:09.031Z,101200.03
2022-12-01T05:29:57.919Z,101197.34
2022-12-01T05:33:24.181Z,101203.44
2022-12-01T05:36:53.119Z,101203.69
2022-12-01T05:40:09.811Z,101213.72
2022-12-01T05:43:39.852Z,101207.84
2022-12-01T05:47:16.431Z,101198.50
2022-12-01T05:50:34.125Z,101210.16
2022-12-01T05:53:52.909Z,101216.84
2022-12-01T05:57:20.808Z,101215.78
2022-12-01T06:00:45.582Z,101215.84
2022-12-01T06:04:00.055Z,101207.63
2022-12-01T06:07:26.127Z,101214.38
2022-12-01T06:10:46.112Z,101218.31
2022-12-01T06:14:14.096Z,101222.00
2022-12-01T06:17:39.784Z,101227.34
2022-12-01T06:21:07.440Z,101232.44
2022-12-01T06:24:35.735Z,101228.50
2022-12-01T06:28:07.285Z,101236.66
2022-12-01T06:31:25.208Z,101231.69
2022-12-01T06:34:54.311Z,101230.41
2022-12-01T06:38:12.421Z,101231.62
2022-12-01T06:41:46.843Z,101225.72
2022-12-01T06:46:00.889Z,101224.53
2022-12-01T06:49:29.177Z,101216.66
2022-12-01T06:53:06.586Z,101219.56
2022-12-01T06:56:45.047Z,101230.59
2022-12-01T07:00:32.289Z,101226.47
2022-12-01T07:04:00.881Z,101230.16
2022-12-01T07:07:40.949Z,101231.28
2022-12-01T07:11:16.119Z,101229.19
2022-12-01T07:14:59.091Z,101235.72
2022-12-01T07:18:41.724Z,101242.03
2022-12-01T07:22:18.545Z,101239.50
2022-12-01T07:26:02.086Z,101232.97
2022-12-01T07:33:33.361Z,101231.00
2022-12-01T07:37:21.270Z,101225.88
2022-12-01T07:40:31.118Z,101229.53
2022-12-01T07:44:07.392Z,101231.56
2022-12-01T07:47:44.199Z,101233.41
2022-12-01T07:51:11.925Z,101229.41
2022-12-01T07:54:33.207Z,101233.37
2022-12-01T07:58:20.114Z,101233.06
2022-12-01T08:01:46.419Z,101241.28
2022-12-01T08:05:18.727Z,101236.75
2022-12-01T08:08:53.327Z,101239.03
2022-12-01T08:12:28.762Z,101242.97
2022-12-01T08:16:10.815Z,101235.12
2022-12-01T08:19:44.799Z,101239.69
2022-12-01T08:23:18.252Z,101241.16
2022-12-01T08:26:28.159Z,101241.47
2022-12-01T08:29:34.272Z,101241.25
2022-12-01T08:33:14.821Z,101242.41
2022-12-01T08:36:39.476Z,101245.91
2022-12-01T08:40:15.332Z,101244.75
2022-12-01T08:44:17.517Z,101247.28
2022-12-01T08:47:41.725Z,101252.25
2022-12-01T08:51:20.676Z,101240.94
2022-12-01T08:54:23.529Z,101238.75
2022-12-01T08:57:42.088Z,101245.31
2022-12-01T09:01:10.882Z,101246.06
2022-12-01T09:04:52.703Z,101248.72
2022-12-01T09:08:33.887Z,101248.19
2022-12-01T09:12:10.736Z,101249.22
2022-12-01T09:15:58.651Z,101239.09
2022-12-01T09:19:34.409Z,101242.97
2022-12-01T09:22:52.578Z,101236.22
2022-12-01T09:26:50.240Z,101221.88
2022-12-01T09:30:09.917Z,101222.88
2022-12-01T09:33:42.322Z,101215.47
2022-12-01T09:37:02.454Z,101218.09
2022-12-01T09:45:02.327Z,101221.03
2022-12-01T09:48:46.779Z,101213.31
2022-12-01T09:52:22.952Z,101218.47
2022-12-01T09:56:03.098Z,101205.41
2022-12-01T09:59:22.967Z,101200.31
2022-12-01T10:03:17.529Z,101198.53
2022-12-01T10:07:18.898Z,101201.25
2022-12-01T10:10:44.910Z,101190.31
2022-12-01T10:14:22.950Z,101194.28
2022-12-01T10:17:54.120Z,101197.03
2022-12-01T10:22:03.340Z,101186.13
2022-12-01T10:25:55.550Z,101171.03
2022-12-01T10:29:49.581Z,101179.19
2022-12-01T10:33:22.990Z,101172.44
2022-12-01T10:37:01.035Z,101169.78
2022-12-01T10:44:01.589Z,101168.91
2022-12-01T10:47:45.450Z,101159.22
2022-12-01T10:51:57.356Z,101154.44
2022-12-01T10:55:32.150Z,101159.47
2022-12-01T10:59:05.444Z,101153.00
2022-12-01T11:02:44.958Z,101150.59
2022-12-01T11:06:08.153Z,101147.38
2022-12-01T11:09:31.180Z,101140.28
2022-12-01T11:13:19.615Z,101129.63
2022-12-01T11:16:55.897Z,101123.19
2022-12-01T11:20:38.567Z,101125.66
2022-12-01T11:24:44.815Z,101119.81
2022-12-01T11:28:21.489Z,101108.94
2022-12-01T11:31:54.111Z,101115.75
2022-12-01T11:35:37.982Z,101107.06
2022-12-01T11:38:43.683Z,101110.25
2022-12-01T11:41:50.117Z,101114.03
2022-12-01T11:45:39.461Z,101105.28
2022-12-01T11:49:23.473Z,101107.44
2022-12-01T11:52:45.151Z,101103.19
2022-12-01T11:55:52.687Z,101104.34
2022-12-01T11:59:49.803Z,101094.25
2022-12-01T12:03:23.972Z,101092.84
2022-12-01T12:07:01.322Z,101095.97
2022-12-01T12:10:49.758Z,101094.84
2022-12-01T12:14:51.711Z,101103.38
2022-12-01T12:18:40.829Z,101096.66
2022-12-01T12:23:01.928Z,101090.78
2022-12-01T12:31:17.642Z,101083.94
2022-12-01T12:35:32.141Z,101086.12
2022-12-01T12:39:31.006Z,101096.47
2022-12-01T12:43:25.755Z,101094.03
2022-12-01T12:48:10.688Z,101093.66
2022-12-01T12:50:58.034Z,101090.59
2022-12-01T12:54:47.042Z,101092.41
2022-12-01T12:58:31.959Z,101089.19
2022-12-01T13:03:42.829Z,101088.34
2022-12-01T13:06:24.213Z,101076.19
2022-12-01T13:10:45.976Z,101077.25
2022-12-01T13:15:03.796Z,101075.00
2022-12-01T13:20:04.269Z,101083.88
2022-12-01T13:23:50.979Z,101079.72
2022-12-01T13:27:34.637Z,101085.41
2022-12-01T13:31:31.889Z,101082.25
2022-12-01T13:39:48.661Z,101092.47
2022-12-01T13:43:27.977Z,101095.22
2022-12-01T13:47:32.794Z,101091.03
2022-12-01T13:51:04.029Z,101089.66
2022-12-01T13:54:30.657Z,101096.75
2022-12-01T13:58:29.359Z,101093.75
2022-12-01T14:02:20.612Z,101094.78
2022-12-01T14:05:54.086Z,101094.78
2022-12-01T14:09:28.847Z,101090.75
2022-12-01T14:13:18.551Z,101085.28
2022-12-01T14:16:55.492Z,101090.50
2022-12-01T14:20:46.206Z,101088.47
2022-12-01T14:24:08.531Z,101078.34
2022-12-01T14:27:45.509Z,101082.97
2022-12-01T14:31:49.165Z,101092.03
2022-12-01T14:35:20.920Z,101092.22
2022-12-01T14:39:49.634Z,101092.91
2022-12-01T14:43:36.179Z,101085.78
2022-12-01T14:47:51.117Z,101092.59
2022-12-01T14:51:32.406Z,101086.69
2022-12-01T14:54:51.513Z,101089.94
2022-12-01T14:58:59.799Z,101091.03
2022-12-01T15:02:25.599Z,101095.88
2022-12-01T15:06:12.753Z,101091.91
2022-12-01T15:10:01.601Z,101089.56
2022-12-01T15:13:48.803Z,101095.47
2022-12-01T15:17:36.459Z,101098.97
2022-12-01T15:21:31.555Z,101098.84
2022-12-01T15:25:15.363Z,101100.53
2022-12-01T15:28:48.963Z,101092.31
2022-12-01T15:32:27.737Z,101095.66
2022-12-01T15:35:56.045Z,101098.22
2022-12-01T15:39:36.055Z,101094.69
2022-12-01T15:43:10.533Z,101100.84
2022-12-01T15:46:32.849Z,101096.53
2022-12-01T15:49:57.745Z,101092.81
2022-12-01T15:53:36.341Z,101098.16
2022-12-01T15:57:05.428Z,101099.84
2022-12-01T16:00:40.444Z,101101.75
2022-12-01T16:04:22.364Z,101105.63
2022-12-01T16:08:15.664Z,101100.31
2022-12-01T16:11:25.771Z,101105.78
2022-12-01T16:15:12.303Z,101111.03
2022-12-01T16:19:03.251Z,101109.19
2022-12-01T16:26:16.832Z,101097.87
2022-12-01T16:30:03.117Z,101116.97
2022-12-01T16:33:31.169Z,101103.81
2022-12-01T16:37:12.175Z,101113.62
2022-12-01T16:40:34.693Z,101110.72
2022-12-01T16:44:27.017Z,101115.31
2022-12-01T16:47:33.379Z,101114.31
2022-12-01T16:51:29.479Z,101109.09
2022-12-01T16:54:52.085Z,101111.06
2022-12-01T16:58:28.603Z,101109.16
2022-12-01T17:01:34.685Z,101114.72
2022-12-01T17:04:38.334Z,101116.88
2022-12-01T17:08:08.871Z,101116.41
2022-12-01T17:11:45.438Z,101120.03
2022-12-01T17:15:18.493Z,101119.94
2022-12-01T17:18:48.248Z,101126.00
2022-12-01T17:22:10.021Z,101125.06
2022-12-01T17:25:46.617Z,101122.16
2022-12-01T17:29:32.483Z,101127.91
2022-12-01T17:36:35.789Z,101124.53
2022-12-01T17:41:01.296Z,101125.25
2022-12-01T17:44:57.151Z,101127.88
2022-12-01T17:56:29.478Z,101126.50
2022-12-01T18:22:31.168Z,101133.19
2022-12-01T18:26:21.872Z,101123.91
2022-12-01T18:41:25.657Z,101131.91
2022-12-01T19:00:09.134Z,101141.38
2022-12-01T19:03:52.557Z,101138.13
2022-12-01T19:07:32.779Z,101139.75
2022-12-01T19:15:02.147Z,101143.03
2022-12-01T19:18:49.562Z,101145.78
2022-12-01T19:22:12.819Z,101142.22
2022-12-01T19:30:05.643Z,101148.72
2022-12-01T19:33:48.506Z,101152.44
2022-12-01T20:40:58.469Z,101166.56
2022-12-01T20:44:36.641Z,101168.63
2022-12-01T20:59:51.401Z,101175.16
2022-12-01T21:03:51.683Z,101178.69
2022-12-01T21:07:32.733Z,101180.47
2022-12-01T21:15:07.388Z,101181.72
2022-12-01T21:19:32.218Z,101179.75
2022-12-01T21:34:21.080Z,101194.41
2022-12-01T21:57:54.763Z,101195.63
2022-12-01T22:10:08.916Z,101205.41
2022-12-01T22:14:07.362Z,101203.03
2022-12-01T22:17:44.374Z,101202.72
2022-12-01T22:21:31.519Z,101204.09
2022-12-01T22:41:58.137Z,101181.41
2022-12-01T22:45:34.221Z,101185.00
2022-12-01T22:52:53.428Z,101184.84
2022-12-01T22:57:08.042Z,101196.22
2022-12-01T23:05:34.507Z,101179.31
2022-12-01T23:16:54.394Z,101180.75
2022-12-01T23:49:37.161Z,101183.66
2022-12-01T23:57:48.134Z,101192.91
